Time;durP1;ratioP1;P1;durP2;ratioP2;P2;SDS_P1;SDS_P2;PMS_P1;PMS_P2;Temp;Humidity;BMP_temperature;BMP_pressure;BME280_temperature;BME280_humidity;BME280_pressure;Samples;Min_cycle;Max_cycle;Signal;HPM_P1;HPM_P2
2021/01/02 00:00:52;;;;;;;3.20;1.60;;;;;;;3.39;84.60;100676.56;4963897;28;20212;-72
2021/01/02 00:03:36;;;;;;;1.70;1.20;;;;;;;3.40;84.41;100680.09;4955371;28;20207;-72
2021/01/02 00:06:09;;;;;;;1.70;1.60;;;;;;;3.41;84.42;100676.50;4950740;28;20207;-73
2021/01/02 00:08:38;;;;;;;492.00;272.83;;;;;;;3.39;84.32;100678.38;4963002;28;20277;-72
2021/01/02 00:11:27;;;;;;;20.20;9.70;;;;;;;3.29;84.11;100661.06;4962858;28;20227;-73
2021/01/02 00:14:07;;;;;;;5.87;3.87;;;;;;;3.49;84.63;100684.16;4938973;29;20217;-71
2021/01/02 00:17:07;;;;;;;4.13;3.10;;;;;;;3.52;84.67;100678.72;4957366;28;20280;-71
2021/01/02 00:20:02;;;;;;;3.73;2.00;;;;;;;3.57;84.95;100679.41;4957295;28;20296;-72
2021/01/02 00:22:40;;;;;;;5.03;2.67;;;;;;;3.60;84.81;100687.25;4954997;28;20952;-72
2021/01/02 00:25:11;;;;;;;4.33;2.23;;;;;;;3.67;84.56;100683.41;4953006;28;20729;-72
2021/01/02 00:28:09;;;;;;;3.37;2.03;;;;;;;3.69;84.52;100686.91;4963232;28;20272;-72
2021/01/02 00:31:06;;;;;;;3.00;2.23;;;;;;;3.72;84.09;100689.44;4954305;28;20224;-73
2021/01/02 00:33:57;;;;;;;3.40;2.03;;;;;;;3.62;84.08;100666.81;4961191;28;20629;-73
2021/01/02 00:36:33;;;;;;;3.73;2.63;;;;;;;3.69;83.98;100687.75;4951603;28;20205;-72
2021/01/02 00:39:01;;;;;;;4.03;1.63;;;;;;;3.37;83.97;100649.25;4959493;28;20231;-72
2021/01/02 00:41:29;;;;;;;3.87;2.13;;;;;;;3.71;84.12;100695.66;4950845;28;20193;-72
2021/01/02 00:43:56;;;;;;;2.40;1.70;;;;;;;3.68;83.81;100695.78;4954311;28;20196;-72
2021/01/02 00:46:23;;;;;;;5.57;2.50;;;;;;;3.69;84.09;100701.03;4956116;28;20199;-72
2021/01/02 00:48:51;;;;;;;9.33;2.40;;;;;;;3.61;84.05;100699.59;4949110;29;20209;-72
2021/01/02 00:51:20;;;;;;;5.70;2.70;;;;;;;3.69;84.21;100695.72;4955468;28;20232;-72
2021/01/02 00:54:02;;;;;;;41.60;32.23;;;;;;;3.75;84.19;100697.28;4961736;28;20809;-72
2021/01/02 00:56:33;;;;;;;5.43;2.60;;;;;;;3.76;84.16;100695.47;4934374;28;20208;-72
2021/01/02 00:59:41;;;;;;;4.17;2.27;;;;;;;3.77;83.82;100697.22;4947231;28;20778;-72
2021/01/02 01:02:49;;;;;;;2.47;1.70;;;;;;;3.80;84.02;100708.56;4943093;28;20205;-73
2021/01/02 01:05:21;;;;;;;2.50;1.60;;;;;;;3.67;83.72;100691.38;4942754;28;20226;-71
2021/01/02 01:07:52;;;;;;;1.87;1.40;;;;;;;3.69;84.05;100709.00;4962691;28;20377;-71
2021/01/02 01:10:24;;;;;;;2.53;1.93;;;;;;;3.73;83.99;100704.44;4961269;28;20692;-72
2021/01/02 01:13:00;;;;;;;3.20;1.63;;;;;;;3.67;83.91;100705.56;4963069;28;20291;-73
2021/01/02 01:15:27;;;;;;;2.50;1.33;;;;;;;3.64;83.83;100702.13;4961912;28;20196;-72
2021/01/02 01:18:15;;;;;;;2.73;1.60;;;;;;;3.63;83.79;100701.25;4964993;28;20295;-72
2021/01/02 01:20:45;;;;;;;5.00;1.83;;;;;;;3.50;84.39;100689.41;4951865;28;20205;-72
2021/01/02 01:23:57;;;;;;;4.37;1.60;;;;;;;3.46;83.97;100698.44;4954436;28;20214;-72
2021/01/02 01:26:44;;;;;;;3.87;1.37;;;;;;;3.51;83.91;100703.56;4918224;28;20213;-72
2021/01/02 01:29:21;;;;;;;2.60;1.33;;;;;;;3.38;84.31;100706.69;4960263;28;20338;-72
2021/01/02 01:31:56;;;;;;;3.07;1.83;;;;;;;3.36;84.36;100705.88;4967478;28;20215;-72
2021/01/02 01:34:26;;;;;;;1.77;1.33;;;;;;;3.33;84.28;100711.28;4962959;28;20279;-72
2021/01/02 01:36:54;;;;;;;1.30;1.20;;;;;;;3.37;84.05;100704.97;4953884;28;20204;-72
2021/01/02 01:39:24;;;;;;;3.70;1.57;;;;;;;3.20;84.35;100683.50;4956591;28;21885;-72
2021/01/02 01:41:58;;;;;;;3.20;1.70;;;;;;;3.34;84.29;100712.16;4968354;28;20215;-72
2021/01/02 01:45:00;;;;;;;4.93;1.90;;;;;;;3.17;84.60;100702.22;4951524;28;20196;-72
2021/01/02 01:47:37;;;;;;;2.70;1.67;;;;;;;3.30;84.40;100710.53;4957606;28;20705;-72
2021/01/02 01:50:25;;;;;;;2.63;1.90;;;;;;;3.36;84.35;100708.50;4949773;28;20577;-72
2021/01/02 01:53:28;;;;;;;3.10;1.80;;;;;;;3.40;84.36;100711.94;4958834;28;20554;-73
2021/01/02 01:56:02;;;;;;;875.73;418.47;;;;;;;3.47;84.17;100721.38;4950191;28;20205;-72
2021/01/02 01:58:55;;;;;;;45.53;17.70;;;;;;;3.42;84.36;100705.66;4958988;28;20208;-73
2021/01/02 02:01:24;;;;;;;7.07;2.83;;;;;;;3.55;84.40;100713.13;4954608;28;20201;-71
2021/01/02 02:04:26;;;;;;;6.00;3.77;;;;;;;3.60;84.34;100713.78;4956238;28;20648;-71
2021/01/02 02:07:00;;;;;;;4.87;2.70;;;;;;;3.61;84.38;100702.25;4958947;28;20910;-71
2021/01/02 02:09:40;;;;;;;5.63;3.40;;;;;;;3.66;84.40;100702.94;4962482;28;20200;-73
2021/01/02 02:12:19;;;;;;;6.43;3.07;;;;;;;3.74;83.99;100722.97;4964809;28;20204;-73
2021/01/02 02:15:02;;;;;;;6.70;4.13;;;;;;;3.80;83.96;100716.53;4967005;28;20219;-72
2021/01/02 02:17:41;;;;;;;3.33;1.90;;;;;;;3.72;83.87;100723.94;4962539;28;20212;-72
2021/01/02 02:20:12;;;;;;;3.57;2.20;;;;;;;3.67;83.85;100725.91;4956219;28;20552;-72
2021/01/02 02:22:41;;;;;;;4.53;2.63;;;;;;;3.74;83.98;100725.63;4953727;28;20223;-72
2021/01/02 02:25:10;;;;;;;4.70;2.33;;;;;;;3.73;83.77;100723.03;4951186;28;20209;-72
2021/01/02 02:27:39;;;;;;;5.33;2.03;;;;;;;3.60;83.96;100697.88;4949732;28;20197;-72
2021/01/02 02:30:09;;;;;;;3.73;2.03;;;;;;;3.71;83.72;100730.19;4955406;28;20248;-72
2021/01/02 02:32:39;;;;;;;2.17;1.90;;;;;;;3.75;83.92;100726.47;4968510;28;20211;-72
2021/01/02 02:35:10;;;;;;;3.97;2.87;;;;;;;3.74;84.12;100727.41;4962061;28;20206;-72
2021/01/02 02:37:44;;;;;;;4.93;2.43;;;;;;;3.75;83.83;100723.81;4959397;28;20776;-72
2021/01/02 02:40:13;;;;;;;3.57;1.83;;;;;;;3.75;83.96;100723.81;4955824;28;20587;-72
2021/01/02 02:42:45;;;;;;;2.97;1.60;;;;;;;3.70;83.98;100725.81;4965830;28;20191;-72
2021/01/02 02:45:15;;;;;;;5.37;2.63;;;;;;;3.78;83.69;100729.00;4961557;28;20198;-72
2021/01/02 02:47:46;;;;;;;2.53;1.87;;;;;;;3.79;83.75;100730.75;4964919;28;20219;-73
2021/01/02 02:50:21;;;;;;;2.13;1.80;;;;;;;3.70;83.60;100731.97;4961197;28;20232;-72
2021/01/02 02:53:01;;;;;;;3.50;1.90;;;;;;;3.67;83.81;100736.53;4964743;28;20202;-71
2021/01/02 02:55:29;;;;;;;1.63;1.50;;;;;;;3.52;83.60;100718.56;4958751;28;20201;-72
2021/01/02 02:57:59;;;;;;;3.70;1.93;;;;;;;3.60;83.70;100740.34;4952793;28;20232;-71
2021/01/02 03:00:27;;;;;;;3.17;2.00;;;;;;;3.58;83.62;100726.28;4974161;28;20573;-72
2021/01/02 03:02:54;;;;;;;5.47;1.90;;;;;;;3.56;83.87;100734.28;4980128;28;20634;-72
2021/01/02 03:05:22;;;;;;;3.97;2.07;;;;;;;3.56;84.01;100744.91;4984497;28;20196;-72
2021/01/02 03:07:50;;;;;;;2.23;1.73;;;;;;;3.36;84.24;100732.41;4985694;28;20223;-72
2021/01/02 03:10:19;;;;;;;2.53;1.67;;;;;;;3.49;83.88;100738.13;4975108;28;20215;-72
2021/01/02 03:12:48;;;;;;;3.50;1.87;;;;;;;3.52;84.06;100747.75;4967910;28;20208;-72
2021/01/02 03:15:17;;;;;;;2.53;2.00;;;;;;;3.46;83.88;100755.97;4984133;28;20683;-73
2021/01/02 03:17:45;;;;;;;6.03;2.03;;;;;;;3.28;84.14;100718.56;4979422;28;20918;-72
2021/01/02 03:20:14;;;;;;;3.73;2.00;;;;;;;3.50;83.77;100749.59;4990236;28;20196;-72
2021/01/02 03:22:43;;;;;;;3.03;1.60;;;;;;;3.51;83.85;100756.66;4980961;28;20196;-72
2021/01/02 03:25:12;;;;;;;3.10;1.90;;;;;;;3.40;83.87;100760.59;4970956;28;20231;-72
2021/01/02 03:27:40;;;;;;;3.03;1.83;;;;;;;3.41;83.98;100757.00;4975957;28;20202;-72
2021/01/02 03:30:09;;;;;;;1.93;1.50;;;;;;;3.28;84.00;100734.50;4982781;28;20317;-71
2021/01/02 03:32:37;;;;;;;3.07;1.80;;;;;;;3.38;83.96;100757.13;4975706;28;20201;-72
2021/01/02 03:35:07;;;;;;;227.10;148.63;;;;;;;3.34;83.95;100759.94;4986757;28;20243;-72
2021/01/02 03:37:36;;;;;;;112.40;57.23;;;;;;;3.30;84.04;100761.84;4986873;28;20199;-72
2021/01/02 03:40:06;;;;;;;7.23;6.33;;;;;;;3.31;84.05;100755.59;4976167;28;20238;-71
2021/01/02 03:42:36;;;;;;;4.10;2.90;;;;;;;3.32;84.37;100757.31;4939519;28;20220;-71
2021/01/02 03:45:05;;;;;;;2.97;2.47;;;;;;;3.34;84.39;100763.44;4984314;28;20291;-72
2021/01/02 03:47:32;;;;;;;6.03;3.70;;;;;;;3.40;84.13;100757.94;4975042;28;20196;-72
2021/01/02 03:49:59;;;;;;;2.67;1.93;;;;;;;3.39;84.28;100764.16;4983075;28;20251;-72
2021/01/02 03:52:28;;;;;;;2.97;2.00;;;;;;;3.42;84.47;100758.72;4986040;28;20202;-72
2021/01/02 03:54:55;;;;;;;2.30;1.90;;;;;;;3.45;84.28;100763.06;4979097;28;20295;-72
2021/01/02 03:57:23;;;;;;;8.90;5.77;;;;;;;3.49;84.04;100754.03;4976837;28;20199;-73
2021/01/02 03:59:50;;;;;;;1.50;1.30;;;;;;;3.49;83.61;100761.16;4975411;28;20205;-72
2021/01/02 04:02:17;;;;;;;2.97;1.50;;;;;;;3.55;83.64;100766.22;4971208;28;20204;-73
2021/01/02 04:04:44;;;;;;;2.40;1.53;;;;;;;3.30;83.83;100737.94;4978336;28;20531;-73
2021/01/02 04:07:11;;;;;;;1.70;1.60;;;;;;;3.54;83.70;100769.78;4983971;28;20740;-72
2021/01/02 04:09:38;;;;;;;2.37;1.57;;;;;;;3.50;83.61;100763.75;4984259;28;20310;-71
2021/01/02 04:12:06;;;;;;;1.50;1.40;;;;;;;3.54;83.80;100764.47;4990172;28;20202;-72
2021/01/02 04:14:34;;;;;;;13.23;2.80;;;;;;;3.54;83.65;100775.09;4970940;28;20207;-72
2021/01/02 04:17:02;;;;;;;2.80;1.20;;;;;;;3.48;83.47;100773.56;4975991;28;20609;-72
2021/01/02 04:19:32;;;;;;;1.77;1.20;;;;;;;3.49;83.43;100777.06;4985708;28;20668;-72
2021/01/02 04:22:00;;;;;;;1.47;1.00;;;;;;;3.48;83.28;100778.88;4985103;28;20192;-73
2021/01/02 04:24:27;;;;;;;1.17;0.87;;;;;;;3.54;83.38;100772.44;4977157;28;20291;-72
2021/01/02 04:26:59;;;;;;;1.40;1.30;;;;;;;3.54;83.58;100777.75;4989974;28;20234;-72
2021/01/02 04:29:26;;;;;;;1.87;1.27;;;;;;;3.53;83.26;100786.66;4970930;28;20244;-72
2021/01/02 04:31:55;;;;;;;0.97;0.93;;;;;;;3.50;83.50;100778.81;4963422;28;20230;-72
2021/01/02 04:34:24;;;;;;;0.90;0.90;;;;;;;3.46;82.87;100783.38;4982495;28;20746;-71
2021/01/02 04:36:51;;;;;;;0.90;0.67;;;;;;;3.45;83.31;100780.78;4988391;28;20678;-72
2021/01/02 04:39:20;;;;;;;1.23;0.90;;;;;;;3.38;83.27;100780.16;4982711;28;20219;-72
2021/01/02 04:41:48;;;;;;;2.00;1.00;;;;;;;3.35;83.31;100778.44;4971314;28;20200;-72
2021/01/02 04:44:17;;;;;;;0.73;0.73;;;;;;;3.25;83.28;100777.06;4972935;28;20649;-72
2021/01/02 04:46:46;;;;;;;1.97;1.03;;;;;;;3.33;83.61;100782.94;4958314;28;20211;-72
2021/01/02 04:49:14;;;;;;;0.90;0.90;;;;;;;3.32;83.26;100778.56;4974173;28;20208;-73
2021/01/02 04:51:41;;;;;;;0.90;0.90;;;;;;;3.37;83.49;100783.72;4982553;28;20223;-72
2021/01/02 04:54:08;;;;;;;0.90;0.90;;;;;;;3.33;83.12;100782.94;4982524;28;20831;-72
2021/01/02 04:56:38;;;;;;;0.90;0.90;;;;;;;3.36;83.44;100790.78;4968482;28;20200;-72
2021/01/02 04:59:10;;;;;;;1.43;0.90;;;;;;;3.35;83.45;100793.50;4988979;28;20199;-71
2021/01/02 05:01:38;;;;;;;0.80;0.80;;;;;;;3.28;83.34;100782.25;4960531;28;20204;-72
2021/01/02 05:04:05;;;;;;;0.73;0.70;;;;;;;3.28;83.33;100789.34;4979117;28;20686;-73
2021/01/02 05:06:33;;;;;;;0.97;0.97;;;;;;;3.29;83.37;100789.28;4977781;28;20241;-72
2021/01/02 05:09:00;;;;;;;0.80;0.80;;;;;;;3.25;83.39;100781.50;4982546;28;20291;-73
2021/01/02 05:11:35;;;;;;;2.70;1.00;;;;;;;3.33;83.35;100790.91;4982421;28;20685;-71
2021/01/02 05:14:04;;;;;;;0.70;0.70;;;;;;;3.27;83.33;100788.47;4981324;28;20286;-72
2021/01/02 05:16:35;;;;;;;0.80;0.80;;;;;;;3.13;83.20;100771.34;4979714;28;20960;-72
2021/01/02 05:19:06;;;;;;;0.77;0.63;;;;;;;3.31;83.32;100790.09;4981340;28;20385;-72
2021/01/02 05:21:35;;;;;;;1.23;0.90;;;;;;;3.32;83.40;100799.78;4987861;28;20727;-73
2021/01/02 05:24:07;;;;;;;0.93;0.90;;;;;;;3.34;83.29;100797.06;4970000;28;20669;-72
2021/01/02 05:26:36;;;;;;;270.63;86.53;;;;;;;3.36;83.38;100796.09;4983143;28;20720;-71
2021/01/02 05:29:26;;;;;;;70.83;28.77;;;;;;;3.36;83.53;100796.09;4971634;28;20239;-72
2021/01/02 05:31:54;;;;;;;3.40;2.17;;;;;;;3.39;83.44;100800.44;4959424;28;20688;-72
2021/01/02 05:34:25;;;;;;;1.40;1.30;;;;;;;3.40;84.08;100805.69;4984791;28;20204;-72
2021/01/02 05:37:00;;;;;;;13.43;9.27;;;;;;;3.26;83.94;100778.78;4985388;28;20197;-71
2021/01/02 05:39:36;;;;;;;1.93;1.47;;;;;;;3.48;83.84;100812.50;4972925;28;20200;-72
2021/01/02 05:42:04;;;;;;;2.60;1.87;;;;;;;3.54;83.72;100809.63;4986544;28;20807;-72
2021/01/02 05:44:33;;;;;;;1.50;1.40;;;;;;;3.54;83.77;100809.63;4981436;28;20202;-73
2021/01/02 05:47:01;;;;;;;1.07;1.00;;;;;;;3.56;83.20;100813.06;4978460;28;20206;-73
2021/01/02 05:49:30;;;;;;;0.80;0.80;;;;;;;3.56;83.23;100815.72;4982336;28;20873;-73
2021/01/02 05:52:00;;;;;;;2.67;1.57;;;;;;;3.52;83.12;100816.78;4987333;28;20215;-73
2021/01/02 05:54:29;;;;;;;1.70;1.33;;;;;;;3.42;83.03;100800.34;4981305;28;20254;-72
2021/01/02 05:56:59;;;;;;;1.57;1.47;;;;;;;3.47;83.33;100824.03;4975412;28;20290;-72
2021/01/02 05:59:28;;;;;;;1.43;1.30;;;;;;;3.40;83.19;100826.94;4988594;28;20660;-72
2021/01/02 06:01:55;;;;;;;3.50;2.17;;;;;;;3.31;83.18;100823.72;4973961;28;20736;-72
2021/01/02 06:04:23;;;;;;;0.80;0.70;;;;;;;3.33;83.53;100830.72;4982590;28;20588;-72
2021/01/02 06:07:08;;;;;;;1.30;1.07;;;;;;;3.17;83.06;100804.81;4989079;28;20238;-72
2021/01/02 06:09:36;;;;;;;0.90;0.90;;;;;;;3.15;83.13;100802.22;4983148;28;20195;-72
2021/01/02 06:12:05;;;;;;;1.00;0.90;;;;;;;3.19;83.43;100832.16;4992201;28;20209;-72
2021/01/02 06:14:34;;;;;;;0.50;0.50;;;;;;;3.04;83.31;100814.97;4971343;28;20196;-72
2021/01/02 06:17:06;;;;;;;0.60;0.60;;;;;;;2.94;83.48;100818.88;4966382;28;20200;-72
2021/01/02 06:19:34;;;;;;;0.80;0.80;;;;;;;3.02;83.51;100840.69;4988568;28;20202;-72
2021/01/02 06:22:03;;;;;;;0.47;0.47;;;;;;;3.07;83.36;100844.06;4987470;28;20195;-73
2021/01/02 06:24:31;;;;;;;0.67;0.67;;;;;;;3.09;83.56;100847.53;4978600;28;20200;-73
2021/01/02 06:27:00;;;;;;;0.67;0.63;;;;;;;3.05;83.43;100853.84;4987842;28;20228;-71
2021/01/02 06:29:27;;;;;;;0.77;0.60;;;;;;;3.11;83.55;100854.53;4983486;28;20243;-72
2021/01/02 06:31:54;;;;;;;1.63;1.00;;;;;;;3.07;83.62;100852.91;4969753;28;20219;-72
2021/01/02 06:34:22;;;;;;;1.17;1.07;;;;;;;3.11;83.28;100853.66;4988170;28;20672;-71
2021/01/02 06:36:55;;;;;;;0.73;0.73;;;;;;;3.12;83.61;100858.03;4988628;28;20203;-72
2021/01/02 06:39:24;;;;;;;1.23;0.80;;;;;;;2.89;83.76;100832.31;4975825;28;20255;-73
2021/01/02 06:41:53;;;;;;;1.30;1.10;;;;;;;3.10;83.42;100857.22;4985065;28;20199;-72
2021/01/02 06:44:47;;;;;;;1.50;0.90;;;;;;;3.15;83.22;100868.53;4972062;28;20197;-71
2021/01/02 06:47:15;;;;;;;0.70;0.70;;;;;;;3.11;83.53;100854.53;4952022;28;20203;-73
2021/01/02 06:49:43;;;;;;;0.70;0.70;;;;;;;3.14;83.52;100864.16;4983451;28;20202;-73
2021/01/02 06:52:27;;;;;;;1.03;0.77;;;;;;;2.85;83.21;100817.44;4990208;28;20214;-73
2021/01/02 06:55:15;;;;;;;0.83;0.83;;;;;;;3.04;83.06;100868.03;4990478;28;20223;-72
2021/01/02 06:57:43;;;;;;;0.73;0.73;;;;;;;3.02;83.34;100880.47;4957792;28;20255;-73
2021/01/02 07:00:21;;;;;;;1.00;0.87;;;;;;;3.10;83.23;100878.44;4971643;28;20189;-72
2021/01/02 07:02:49;;;;;;;0.70;0.70;;;;;;;3.10;83.27;100886.41;4964345;28;20632;-72
2021/01/02 07:05:43;;;;;;;0.60;0.60;;;;;;;3.02;82.94;100867.22;4964119;28;20240;-72
2021/01/02 07:08:41;;;;;;;0.70;0.70;;;;;;;3.16;83.41;100890.63;4974165;28;20595;-72
2021/01/02 07:11:38;;;;;;;0.50;0.50;;;;;;;3.13;83.53;100898.69;4971304;28;20220;-72
2021/01/02 07:14:30;;;;;;;0.50;0.50;;;;;;;3.08;83.18;100889.13;4942085;28;20211;-72
2021/01/02 07:16:59;;;;;;;0.60;0.60;;;;;;;3.09;83.47;100895.28;4948216;28;20740;-72
2021/01/02 07:19:34;;;;;;;10.03;7.50;;;;;;;2.96;83.32;100876.25;4963084;28;20264;-73
2021/01/02 07:22:05;;;;;;;136.97;41.13;;;;;;;3.14;83.31;100906.59;4970645;28;20228;-72
2021/01/02 07:24:39;;;;;;;5.20;2.40;;;;;;;3.10;83.61;100904.97;4965556;28;20582;-72
2021/01/02 07:27:08;;;;;;;12.00;3.23;;;;;;;3.17;83.73;100914.47;4968467;28;20204;-72
2021/01/02 07:29:38;;;;;;;1.20;1.17;;;;;;;3.16;83.79;100918.03;4962031;28;20232;-72
2021/01/02 07:32:07;;;;;;;0.90;0.90;;;;;;;3.20;83.62;100922.31;4968997;28;20212;-73
2021/01/02 07:34:34;;;;;;;2.10;1.83;;;;;;;3.15;83.52;100926.91;4965763;28;20196;-73
2021/01/02 07:37:04;;;;;;;3.03;1.40;;;;;;;3.07;83.72;100929.84;4963373;28;20199;-73
2021/01/02 07:39:32;;;;;;;1.63;0.90;;;;;;;3.05;83.44;100922.81;4963905;28;20189;-73
2021/01/02 07:42:05;;;;;;;1.33;1.20;;;;;;;2.97;83.79;100931.03;4969100;28;20851;-72
2021/01/02 07:44:33;;;;;;;0.90;0.60;;;;;;;2.92;83.80;100926.81;4970384;28;20946;-73
2021/01/02 07:47:02;;;;;;;1.50;1.40;;;;;;;2.47;84.23;100898.25;4970759;28;20279;-73
2021/01/02 07:49:30;;;;;;;2.40;2.07;;;;;;;2.85;84.44;100941.19;4968176;28;20194;-73
2021/01/02 07:51:57;;;;;;;1.07;1.03;;;;;;;2.86;84.20;100942.94;4968900;28;20223;-72
2021/01/02 07:54:34;;;;;;;1.30;1.20;;;;;;;2.70;83.83;100926.63;4966162;28;20224;-73
2021/01/02 07:57:05;;;;;;;3.20;1.27;;;;;;;2.79;84.34;100953.75;4964815;28;20278;-73
2021/01/02 07:59:34;;;;;;;0.83;0.83;;;;;;;2.82;84.10;100952.78;4967511;28;20568;-73
2021/01/02 08:02:23;;;;;;;2.10;1.77;;;;;;;2.77;84.39;100947.63;4967862;28;20200;-72
2021/01/02 08:04:52;;;;;;;0.93;0.90;;;;;;;2.68;84.24;100939.09;4966506;28;20506;-72
2021/01/02 08:07:19;;;;;;;3.03;1.73;;;;;;;2.84;84.17;100955.38;4963122;28;20228;-73
2021/01/02 08:09:48;;;;;;;1.17;1.03;;;;;;;2.94;84.20;100965.63;4964666;28;20204;-73
2021/01/02 08:12:17;;;;;;;2.80;1.20;;;;;;;2.88;84.31;100967.63;4969603;28;20220;-73
2021/01/02 08:14:46;;;;;;;0.70;0.70;;;;;;;2.81;84.16;100961.66;4968278;28;20215;-72
2021/01/02 08:17:15;;;;;;;1.03;0.80;;;;;;;2.80;84.34;100967.88;4967135;28;20192;-71
2021/01/02 08:19:56;;;;;;;0.90;0.90;;;;;;;2.82;84.16;100981.06;4965159;28;20202;-73
2021/01/02 08:22:29;;;;;;;2.83;0.80;;;;;;;2.82;84.27;100979.28;4967957;28;20278;-72
2021/01/02 08:24:57;;;;;;;0.80;0.80;;;;;;;2.75;84.51;100975.94;4969075;28;20676;-73
2021/01/02 08:27:26;;;;;;;1.13;0.97;;;;;;;2.73;84.66;100977.78;4968270;28;20614;-73
2021/01/02 08:29:54;;;;;;;0.93;0.93;;;;;;;2.67;84.67;100991.25;4969137;28;20959;-73
2021/01/02 08:32:25;;;;;;;1.40;1.00;;;;;;;2.69;84.92;100989.41;4968366;28;20239;-72
2021/01/02 08:34:53;;;;;;;0.80;0.80;;;;;;;2.66;85.07;100984.19;4968189;28;20300;-72
2021/01/02 08:37:21;;;;;;;0.83;0.83;;;;;;;2.63;85.10;100997.56;4968798;28;20657;-71
2021/01/02 08:40:04;;;;;;;1.47;0.93;;;;;;;2.55;85.51;100996.94;4970801;28;20275;-71
2021/01/02 08:42:35;;;;;;;0.70;0.70;;;;;;;2.39;85.76;100987.69;4967979;28;20201;-71
2021/01/02 08:45:04;;;;;;;0.70;0.70;;;;;;;2.35;86.34;101002.81;4969466;28;20306;-72
2021/01/02 08:47:32;;;;;;;0.67;0.67;;;;;;;2.24;86.21;100978.44;4947369;28;20199;-73
2021/01/02 08:50:11;;;;;;;0.73;0.73;;;;;;;2.42;86.25;101008.81;4969968;28;20209;-73
2021/01/02 08:52:39;;;;;;;1.70;0.90;;;;;;;2.09;86.16;100947.97;4970166;28;20215;-74
2021/01/02 08:55:12;;;;;;;0.70;0.70;;;;;;;2.40;86.34;101007.97;4973748;28;20196;-71
2021/01/02 08:57:47;;;;;;;0.87;0.87;;;;;;;2.26;86.43;100986.34;4972463;28;20224;-73
2021/01/02 09:00:20;;;;;;;1.07;0.97;;;;;;;2.47;86.24;101021.03;4970302;28;20230;-72
2021/01/02 09:02:50;;;;;;;0.83;0.70;;;;;;;2.28;86.06;100979.22;4964350;28;20271;-73
2021/01/02 09:05:26;;;;;;;0.90;0.90;;;;;;;2.54;86.14;101027.00;4968419;28;20259;-74
2021/01/02 09:07:56;;;;;;;3.80;1.13;;;;;;;2.58;85.88;101017.16;4965408;28;20302;-74
2021/01/02 09:10:27;;;;;;;1.30;0.80;;;;;;;2.49;85.74;101000.66;4957083;28;20238;-72
2021/01/02 09:13:19;;;;;;;0.93;0.90;;;;;;;2.69;85.71;101030.94;4966683;28;20195;-73
2021/01/02 09:15:55;;;;;;;0.70;0.70;;;;;;;2.62;85.91;101040.88;4961092;28;20201;-73
2021/01/02 09:18:42;;;;;;;0.97;0.70;;;;;;;2.61;86.03;101028.53;4959549;28;20224;-72
2021/01/02 09:21:21;;;;;;;42.37;20.90;;;;;;;2.50;85.88;101006.81;4966499;28;20729;-72
2021/01/02 09:24:00;;;;;;;9.90;5.57;;;;;;;2.63;86.19;101039.97;4976642;28;20192;-73
2021/01/02 09:26:30;;;;;;;3.10;1.17;;;;;;;2.64;86.17;101052.31;4972954;28;20202;-73
2021/01/02 09:28:59;;;;;;;1.40;1.30;;;;;;;2.66;86.51;101047.81;4973119;28;20233;-72
2021/01/02 09:31:27;;;;;;;1.10;1.00;;;;;;;2.73;86.07;101048.50;4955510;28;20677;-72
2021/01/02 09:33:56;;;;;;;2.47;1.50;;;;;;;2.60;86.25;101026.81;4956026;28;20205;-73
2021/01/02 09:36:25;;;;;;;3.07;1.47;;;;;;;2.80;86.22;101056.25;4972519;28;20247;-72
2021/01/02 09:38:52;;;;;;;4.00;1.33;;;;;;;2.92;86.43;101064.72;4976000;28;20191;-72
2021/01/02 09:41:24;;;;;;;1.07;0.70;;;;;;;2.83;85.98;101043.81;4978732;28;20235;-73
2021/01/02 09:43:53;;;;;;;1.07;1.03;;;;;;;2.88;86.10;101063.09;4962377;28;20291;-73
2021/01/02 09:46:22;;;;;;;4.97;1.53;;;;;;;2.82;86.46;101068.59;4976330;28;20194;-73
2021/01/02 09:48:51;;;;;;;1.10;1.00;;;;;;;2.83;86.31;101065.03;4976438;28;20200;-73
2021/01/02 09:51:22;;;;;;;1.40;1.30;;;;;;;2.80;86.19;101072.16;4974646;28;20208;-73
2021/01/02 09:53:50;;;;;;;1.60;1.50;;;;;;;2.89;86.15;101071.00;4972418;28;20185;-73
2021/01/02 09:56:18;;;;;;;7.17;5.77;;;;;;;2.85;86.47;101073.78;4975020;28;20524;-73
2021/01/02 09:58:46;;;;;;;0.90;0.90;;;;;;;2.75;86.01;101062.56;4976021;28;20196;-73
2021/01/02 10:01:15;;;;;;;2.23;0.93;;;;;;;2.82;86.37;101060.63;4976708;28;20591;-74
2021/01/02 10:03:42;;;;;;;0.50;0.50;;;;;;;3.00;86.41;101078.59;4975666;28;20191;-74
2021/01/02 10:06:10;;;;;;;2.07;1.20;;;;;;;2.93;85.69;101082.38;4975671;28;20686;-74
2021/01/02 10:08:37;;;;;;;1.33;1.10;;;;;;;2.99;85.71;101079.53;4969979;28;20595;-74
2021/01/02 10:11:05;;;;;;;3.67;1.10;;;;;;;2.96;85.72;101082.28;4976255;28;20211;-72
2021/01/02 10:13:32;;;;;;;0.87;0.87;;;;;;;2.92;85.91;101081.50;4972386;28;20206;-74
2021/01/02 10:16:01;;;;;;;1.07;0.80;;;;;;;2.99;85.67;101087.47;4971049;28;20188;-72
2021/01/02 10:18:32;;;;;;;0.83;0.83;;;;;;;2.94;85.72;101089.41;4963779;28;20641;-73
2021/01/02 10:20:59;;;;;;;1.53;0.80;;;;;;;2.94;85.67;101089.41;4974732;28;20201;-73
2021/01/02 10:23:26;;;;;;;0.70;0.70;;;;;;;2.99;85.77;101091.00;4976204;28;20202;-73
2021/01/02 10:25:53;;;;;;;0.70;0.70;;;;;;;2.99;85.69;101098.09;4965367;28;20717;-73
2021/01/02 10:28:21;;;;;;;0.80;0.80;;;;;;;2.95;85.73;101094.66;4977935;28;20593;-73
2021/01/02 10:30:48;;;;;;;1.00;0.90;;;;;;;3.02;85.90;101098.00;4970842;28;20677;-73
2021/01/02 10:33:16;;;;;;;0.63;0.63;;;;;;;2.99;85.72;101103.41;4977390;28;20195;-74
2021/01/02 10:35:44;;;;;;;0.97;0.67;;;;;;;2.96;85.58;101101.72;4971501;28;20192;-74
2021/01/02 10:38:11;;;;;;;0.70;0.70;;;;;;;2.86;85.77;101107.34;4973083;28;20668;-73
2021/01/02 10:40:38;;;;;;;0.77;0.77;;;;;;;2.93;86.24;101108.91;4975741;28;20193;-73
2021/01/02 10:43:05;;;;;;;0.70;0.70;;;;;;;2.84;85.99;101078.22;4973379;28;20287;-75
2021/01/02 10:45:33;;;;;;;0.70;0.70;;;;;;;2.99;86.03;101108.69;4982262;28;20202;-74
2021/01/02 10:48:00;;;;;;;0.73;0.70;;;;;;;2.88;86.17;101113.47;4974692;28;20208;-72
2021/01/02 10:50:28;;;;;;;0.80;0.80;;;;;;;2.88;86.04;101110.81;4964970;28;20568;-73
2021/01/02 10:52:55;;;;;;;0.60;0.47;;;;;;;3.04;85.65;101115.59;4970572;28;20302;-73
2021/01/02 10:55:22;;;;;;;0.60;0.60;;;;;;;2.91;85.76;101116.03;4968774;28;20300;-74
2021/01/02 10:57:49;;;;;;;1.13;0.90;;;;;;;2.89;86.03;101113.44;4972196;28;20607;-72
2021/01/02 11:00:17;;;;;;;0.70;0.70;;;;;;;3.00;86.04;101110.44;4963344;28;20647;-73
2021/01/02 11:02:44;;;;;;;0.57;0.57;;;;;;;3.04;85.52;101115.59;4972300;28;20239;-73
2021/01/02 11:05:12;;;;;;;1.00;0.67;;;;;;;3.03;85.81;101121.81;4975427;28;20680;-73
2021/01/02 11:07:40;;;;;;;0.73;0.73;;;;;;;2.89;85.42;101107.25;4967708;28;20215;-74
2021/01/02 11:10:09;;;;;;;0.93;0.73;;;;;;;3.04;85.75;101118.25;4964951;28;20197;-72
2021/01/02 11:12:36;;;;;;;0.80;0.80;;;;;;;3.04;85.67;101128.00;4968795;28;20278;-73
2021/01/02 11:15:06;;;;;;;0.70;0.70;;;;;;;3.01;86.02;101122.78;4964261;28;20239;-73
2021/01/02 11:17:33;;;;;;;0.70;0.70;;;;;;;3.01;86.27;101125.44;4957879;28;20188;-72
2021/01/02 11:20:00;;;;;;;504.77;166.40;;;;;;;2.97;86.07;101126.44;4968899;28;20204;-73
2021/01/02 11:22:30;;;;;;;105.53;39.00;;;;;;;2.77;86.62;101100.56;4964773;28;20206;-74
2021/01/02 11:24:58;;;;;;;2.90;2.60;;;;;;;2.82;87.04;101101.28;4968596;28;20203;-73
2021/01/02 11:27:25;;;;;;;3.80;1.90;;;;;;;3.15;86.46;101136.50;4969177;28;20975;-73
2021/01/02 11:29:52;;;;;;;2.47;1.10;;;;;;;3.08;86.34;101129.66;4962930;28;20672;-72
2021/01/02 11:32:21;;;;;;;12.60;9.33;;;;;;;3.22;86.23;101131.88;4969424;28;20246;-73
2021/01/02 11:34:48;;;;;;;3.93;1.40;;;;;;;3.07;86.36;101106.69;4967339;28;20313;-72
2021/01/02 11:37:15;;;;;;;4.50;1.60;;;;;;;3.12;86.21;101136.59;4966670;28;20238;-74
2021/01/02 11:39:42;;;;;;;0.77;0.77;;;;;;;3.04;86.18;101128.00;4971874;28;20203;-74
2021/01/02 11:42:14;;;;;;;2.47;1.80;;;;;;;3.06;85.78;101144.72;4971255;28;20287;-75
2021/01/02 11:44:41;;;;;;;1.10;0.80;;;;;;;3.15;85.74;101152.44;4965578;28;20295;-75
2021/01/02 11:47:09;;;;;;;1.57;1.43;;;;;;;2.90;85.80;101123.13;4966168;28;20408;-75
2021/01/02 11:49:36;;;;;;;1.13;0.60;;;;;;;2.69;85.83;101084.84;4958845;28;20250;-76
2021/01/02 11:52:05;;;;;;;1.00;0.80;;;;;;;3.06;85.80;101150.94;4963690;28;20251;-76
2021/01/02 11:54:34;;;;;;;1.00;1.00;;;;;;;3.06;85.93;101153.59;4975813;28;20283;-74